Time;durP1;ratioP1;P1;durP2;ratioP2;P2;SDS_P1;SDS_P2;PMS_P1;PMS_P2;Temp;Humidity;BMP_temperature;BMP_pressure;BME280_temperature;BME280_humidity;BME280_pressure;Samples;Min_cycle;Max_cycle;Signal;HPM_P1;HPM_P2
2023/01/12 00:01:48;;;;;;;19.57;12.87;;;;;;;;;;6216469;23;20068;-71
2023/01/12 00:04:15;;;;;;;19.60;12.47;;;;;;;;;;6216422;23;20012;-71
2023/01/12 00:06:41;;;;;;;19.90;13.30;;;;;;;;;;6190489;23;20076;-71
2023/01/12 00:09:08;;;;;;;22.43;13.50;;;;;;;;;;6216933;23;20016;-71
2023/01/12 00:11:35;;;;;;;19.63;12.63;;;;;;;;;;6216667;23;20312;-71
2023/01/12 00:14:01;;;;;;;22.33;13.13;;;;;;;;;;6216610;23;20068;-71
2023/01/12 00:16:33;;;;;;;20.33;12.87;;;;;;;;;;6216980;23;20007;-71
2023/01/12 00:22:36;;;;;;;18.77;12.03;;;;;;;;;;6094864;23;20101;-71
2023/01/12 00:37:36;;;;;;;17.83;11.48;;;;;;;;;;6124506;23;20092;-71
2023/01/12 00:40:02;;;;;;;17.03;10.80;;;;;;;;;;6187706;23;20027;-71
2023/01/12 00:45:32;;;;;;;15.48;10.02;;;;;;;;;;6214133;23;20022;-71
2023/01/12 00:47:58;;;;;;;15.70;9.87;;;;;;;;;;6216060;23;20328;-71
2023/01/12 00:50:25;;;;;;;19.27;11.57;;;;;;;;;;6214563;23;20000;-71
2023/01/12 00:52:51;;;;;;;19.73;12.33;;;;;;;;;;6216252;23;20331;-71
2023/01/12 00:55:17;;;;;;;20.57;11.97;;;;;;;;;;6216243;23;20083;-71
2023/01/12 00:57:43;;;;;;;21.73;11.43;;;;;;;;;;6215891;23;20076;-71
2023/01/12 01:00:10;;;;;;;18.50;11.50;;;;;;;;;;6215342;23;20032;-71
2023/01/12 01:02:36;;;;;;;29.37;13.97;;;;;;;;;;6215423;23;20004;-71
2023/01/12 01:05:02;;;;;;;21.47;13.50;;;;;;;;;;6215507;23;20001;-71
2023/01/12 01:07:28;;;;;;;21.67;12.43;;;;;;;;;;6215473;23;20019;-71
2023/01/12 01:09:54;;;;;;;18.80;12.27;;;;;;;;;;6215439;23;20058;-71
2023/01/12 01:12:20;;;;;;;19.17;11.40;;;;;;;;;;6215111;23;20432;-71
2023/01/12 01:14:47;;;;;;;15.93;10.30;;;;;;;;;;6215466;23;20004;-71
2023/01/12 01:17:13;;;;;;;14.97;9.53;;;;;;;;;;6215179;23;20001;-71
2023/01/12 01:19:39;;;;;;;14.83;9.03;;;;;;;;;;6213802;23;20483;-71
2023/01/12 01:22:05;;;;;;;15.57;9.83;;;;;;;;;;6215338;23;20073;-71
2023/01/12 01:24:31;;;;;;;20.13;9.17;;;;;;;;;;6215054;23;20424;-71
2023/01/12 01:26:57;;;;;;;12.93;8.30;;;;;;;;;;6215376;23;20001;-71
2023/01/12 01:29:23;;;;;;;12.33;7.37;;;;;;;;;;6215316;23;20454;-71
2023/01/12 01:31:49;;;;;;;13.60;7.67;;;;;;;;;;6215274;23;20000;-71
2023/01/12 01:34:16;;;;;;;14.17;7.20;;;;;;;;;;6215322;23;20001;-71
2023/01/12 01:36:42;;;;;;;10.20;6.33;;;;;;;;;;6215011;23;20483;-71
2023/01/12 01:39:09;;;;;;;10.17;6.17;;;;;;;;;;6215396;23;20071;-71
2023/01/12 01:41:35;;;;;;;10.33;6.00;;;;;;;;;;6215651;23;20005;-71
2023/01/12 01:44:01;;;;;;;8.53;5.30;;;;;;;;;;6215086;23;20004;-71
2023/01/12 01:46:27;;;;;;;9.80;5.40;;;;;;;;;;6215203;23;20336;-71
2023/01/12 01:48:53;;;;;;;11.23;5.70;;;;;;;;;;6215400;23;20012;-71
2023/01/12 01:51:20;;;;;;;9.47;5.33;;;;;;;;;;6215268;23;20450;-71
2023/01/12 01:53:47;;;;;;;10.27;5.33;;;;;;;;;;6215835;23;20331;-71
2023/01/12 01:56:16;;;;;;;8.67;5.13;;;;;;;;;;6216153;23;19996;-70
2023/01/12 01:58:58;;;;;;;8.70;5.30;;;;;;;;;;6213331;23;20346;-71
2023/01/12 02:01:24;;;;;;;9.83;6.20;;;;;;;;;;6212862;23;20339;-71
2023/01/12 02:03:53;;;;;;;10.67;6.53;;;;;;;;;;6212936;23;20015;-71
2023/01/12 02:10:01;;;;;;;12.00;7.37;;;;;;;;;;6065829;23;20019;-71
2023/01/12 02:24:52;;;;;;;;;;;;;;;;;;6216079;23;20012;-71
2023/01/12 02:30:51;;;;;;;10.13;5.70;;;;;;;;;;6094315;23;20042;-71
2023/01/12 02:33:23;;;;;;;8.17;5.03;;;;;;;;;;6093356;23;20368;-71
2023/01/12 02:36:09;;;;;;;10.67;4.73;;;;;;;;;;6166357;23;20331;-71
2023/01/12 02:38:51;;;;;;;9.83;4.60;;;;;;;;;;6188275;23;20328;-71
2023/01/12 02:42:40;;;;;;;6.30;3.40;;;;;;;;;;6214955;23;20314;-71
2023/01/12 02:44:27;;;;;;;6.30;3.47;;;;;;;;;;6213533;23;20152;-71
2023/01/12 02:46:54;;;;;;;6.27;3.30;;;;;;;;;;6241154;23;20343;-71
2023/01/12 02:49:22;;;;;;;7.57;3.03;;;;;;;;;;6246965;23;20442;-71
2023/01/12 02:51:54;;;;;;;8.80;3.53;;;;;;;;;;6247323;23;20000;-71
2023/01/12 02:54:22;;;;;;;7.50;3.33;;;;;;;;;;6220312;23;20004;-71
2023/01/12 02:56:50;;;;;;;6.07;3.50;;;;;;;;;;6246852;23;20319;-70
2023/01/12 02:59:27;;;;;;;6.67;3.50;;;;;;;;;;6246482;23;20434;-71
2023/01/12 03:01:56;;;;;;;6.67;3.47;;;;;;;;;;6247224;23;20008;-70
2023/01/12 03:04:22;;;;;;;6.07;3.30;;;;;;;;;;6247136;23;20000;-71
2023/01/12 03:06:57;;;;;;;8.93;4.67;;;;;;;;;;6247330;23;20015;-71
2023/01/12 03:09:32;;;;;;;7.33;4.47;;;;;;;;;;6247267;23;20435;-71
2023/01/12 03:12:01;;;;;;;9.20;4.80;;;;;;;;;;6246575;23;20327;-71
2023/01/12 03:14:28;;;;;;;8.17;5.20;;;;;;;;;;6246569;23;20616;-71
2023/01/12 03:16:56;;;;;;;8.53;5.10;;;;;;;;;;6246995;23;20000;-71
2023/01/12 03:19:27;;;;;;;8.03;4.83;;;;;;;;;;6246594;23;20511;-71
2023/01/12 03:21:55;;;;;;;12.50;5.10;;;;;;;;;;6246619;23;20095;-71
2023/01/12 03:24:25;;;;;;;9.10;5.30;;;;;;;;;;6246882;23;20059;-71
2023/01/12 03:26:54;;;;;;;8.73;5.67;;;;;;;;;;6246618;23;20450;-71
2023/01/12 03:29:26;;;;;;;9.63;5.50;;;;;;;;;;6246503;23;20110;-71
2023/01/12 03:31:52;;;;;;;8.80;5.43;;;;;;;;;;6247011;23;20011;-71
2023/01/12 03:34:18;;;;;;;9.33;4.90;;;;;;;;;;6246508;23;20000;-71
2023/01/12 03:36:56;;;;;;;8.70;5.03;;;;;;;;;;6245787;23;20439;-71
2023/01/12 03:39:37;;;;;;;8.07;4.93;;;;;;;;;;6246145;23;20010;-70
2023/01/12 03:42:35;;;;;;;7.50;4.90;;;;;;;;;;6245818;23;20074;-70
2023/01/12 03:45:20;;;;;;;7.87;4.33;;;;;;;;;;6178663;23;20070;-71
2023/01/12 03:47:48;;;;;;;7.10;4.40;;;;;;;;;;6246215;23;20038;-70
2023/01/12 03:50:32;;;;;;;8.30;4.17;;;;;;;;;;6218735;23;20000;-71
2023/01/12 03:53:10;;;;;;;7.83;4.77;;;;;;;;;;6245935;23;20007;-71
2023/01/12 03:56:06;;;;;;;7.80;4.10;;;;;;;;;;6245942;23;20000;-71
2023/01/12 03:58:33;;;;;;;6.80;3.97;;;;;;;;;;6123505;23;20006;-70
2023/01/12 04:01:25;;;;;;;8.87;4.20;;;;;;;;;;6123882;23;20044;-71
2023/01/12 04:04:19;;;;;;;7.23;3.73;;;;;;;;;;6090551;23;20053;-70
2023/01/12 04:07:07;;;;;;;;;;;;;;;;;;;;;
2023/01/12 04:09:42;;;;;;;7.20;4.57;;;;;;;;;;6123913;23;20100;-70
2023/01/12 04:12:29;;;;;;;23.33;7.70;;;;;;;;;;6123354;23;20006;-70
2023/01/12 04:15:02;;;;;;;8.17;4.13;;;;;;;;;;6122909;23;20041;-70
2023/01/12 04:20:52;;;;;;;6.97;3.83;;;;;;;;;;6124301;23;20057;-71
2023/01/12 04:23:18;;;;;;;7.53;4.03;;;;;;;;;;6122578;23;20041;-71
2023/01/12 04:25:44;;;;;;;6.47;4.13;;;;;;;;;;6124179;23;20374;-70
2023/01/12 04:28:10;;;;;;;6.90;3.93;;;;;;;;;;6170795;23;20015;-71
2023/01/12 04:30:36;;;;;;;9.43;4.37;;;;;;;;;;6245866;23;20004;-71
2023/01/12 04:33:06;;;;;;;5.87;3.50;;;;;;;;;;6245668;23;20334;-71
2023/01/12 04:35:33;;;;;;;5.97;4.07;;;;;;;;;;6245835;23;20335;-71
2023/01/12 04:38:04;;;;;;;5.63;4.10;;;;;;;;;;6245844;23;20314;-70
2023/01/12 04:40:30;;;;;;;8.07;4.80;;;;;;;;;;6245821;23;20004;-69
2023/01/12 04:43:07;;;;;;;7.97;4.27;;;;;;;;;;6218995;23;20319;-69
2023/01/12 04:45:35;;;;;;;7.57;4.37;;;;;;;;;;6246373;23;20343;-69
2023/01/12 04:48:09;;;;;;;9.17;4.47;;;;;;;;;;6246117;23;20331;-69
2023/01/12 04:50:35;;;;;;;8.57;4.30;;;;;;;;;;6246312;23;20050;-70
2023/01/12 04:53:02;;;;;;;10.70;4.47;;;;;;;;;;6219399;23;20008;-70
2023/01/12 04:55:28;;;;;;;9.83;4.93;;;;;;;;;;6245537;23;20351;-71
2023/01/12 04:57:56;;;;;;;9.13;5.00;;;;;;;;;;6245505;23;20004;-70
2023/01/12 05:00:22;;;;;;;8.10;4.70;;;;;;;;;;6245973;23;20000;-71
2023/01/12 05:02:49;;;;;;;7.17;4.47;;;;;;;;;;6246361;23;20008;-70
2023/01/12 05:05:15;;;;;;;7.47;4.37;;;;;;;;;;6246015;23;20430;-71
2023/01/12 05:10:21;;;;;;;6.97;4.90;;;;;;;;;;6246022;23;20015;-70
2023/01/12 05:10:28;;;;;;;7.73;4.60;;;;;;;;;;6245822;23;20012;-71
2023/01/12 05:12:55;;;;;;;7.97;4.90;;;;;;;;;;6245682;23;20031;-71
2023/01/12 05:15:21;;;;;;;8.27;4.87;;;;;;;;;;6245816;23;20003;-71
2023/01/12 05:17:47;;;;;;;11.47;4.40;;;;;;;;;;6246034;23;20000;-71
2023/01/12 05:20:13;;;;;;;8.17;4.83;;;;;;;;;;6246108;23;20000;-71
2023/01/12 05:22:39;;;;;;;7.33;4.73;;;;;;;;;;6245717;23;20003;-70
2023/01/12 05:25:06;;;;;;;7.80;4.17;;;;;;;;;;6245917;23;20000;-71
2023/01/12 05:27:32;;;;;;;7.57;4.30;;;;;;;;;;6246365;23;20014;-71
2023/01/12 05:29:58;;;;;;;9.57;4.20;;;;;;;;;;6245696;23;20012;-70
2023/01/12 05:32:25;;;;;;;8.90;4.20;;;;;;;;;;6246346;23;20046;-70
2023/01/12 05:34:51;;;;;;;10.10;4.47;;;;;;;;;;6246779;23;20005;-70
2023/01/12 05:37:17;;;;;;;8.40;5.00;;;;;;;;;;6246776;23;20369;-71
2023/01/12 05:39:43;;;;;;;13.43;4.60;;;;;;;;;;6246616;23;20000;-71
2023/01/12 05:51:37;;;;;;;9.80;4.30;;;;;;;;;;6095375;23;20015;-71
2023/01/12 05:54:22;;;;;;;7.13;4.13;;;;;;;;;;6124310;23;20006;-71
2023/01/12 06:03:12;;;;;;;7.03;3.77;;;;;;;;;;6094406;23;20029;-71
2023/01/12 06:06:11;;;;;;;6.07;3.83;;;;;;;;;;6094106;23;20014;-71
2023/01/12 06:14:30;;;;;;;8.67;4.00;;;;;;;;;;6012007;23;20526;-71
2023/01/12 06:16:56;;;;;;;10.53;3.67;;;;;;;;;;6186069;23;20413;-70
2023/01/12 06:19:22;;;;;;;7.50;3.80;;;;;;;;;;6188628;23;20443;-71
2023/01/12 06:21:48;;;;;;;11.57;3.87;;;;;;;;;;6215148;23;20004;-71
2023/01/12 06:24:14;;;;;;;6.97;3.50;;;;;;;;;;6216724;23;20004;-70
2023/01/12 06:26:43;;;;;;;10.43;4.10;;;;;;;;;;6190590;23;20336;-71
2023/01/12 06:29:10;;;;;;;7.93;3.73;;;;;;;;;;6217183;23;20312;-71
2023/01/12 06:31:37;;;;;;;12.53;4.00;;;;;;;;;;6217065;23;20370;-71
2023/01/12 06:34:03;;;;;;;5.70;3.80;;;;;;;;;;6190232;23;20005;-71
2023/01/12 06:36:29;;;;;;;10.87;3.93;;;;;;;;;;6216906;23;20004;-70
2023/01/12 06:38:55;;;;;;;16.27;3.97;;;;;;;;;;6216871;23;20005;-71
2023/01/12 06:44:06;;;;;;;12.27;5.07;;;;;;;;;;6217005;23;20355;-70
2023/01/12 06:46:32;;;;;;;12.73;4.87;;;;;;;;;;6217114;23;20008;-69
2023/01/12 06:48:58;;;;;;;9.93;4.43;;;;;;;;;;6246692;23;20020;-70
2023/01/12 06:51:25;;;;;;;10.80;4.70;;;;;;;;;;6247342;23;20130;-70
2023/01/12 06:53:51;;;;;;;21.93;4.97;;;;;;;;;;6247405;23;20418;-70
2023/01/12 06:56:17;;;;;;;12.67;5.13;;;;;;;;;;6247088;23;20119;-70
2023/01/12 06:58:43;;;;;;;11.23;4.30;;;;;;;;;;6246888;23;20000;-71
2023/01/12 07:01:09;;;;;;;15.57;5.67;;;;;;;;;;6247011;23;20006;-71
2023/01/12 07:03:35;;;;;;;19.47;8.67;;;;;;;;;;6245303;23;20428;-71
2023/01/12 07:06:02;;;;;;;50.13;21.17;;;;;;;;;;6247394;23;20070;-71
2023/01/12 07:08:28;;;;;;;43.67;23.93;;;;;;;;;;6247068;23;20008;-71
2023/01/12 07:10:54;;;;;;;36.87;17.07;;;;;;;;;;6247038;23;20000;-71
2023/01/12 07:13:20;;;;;;;28.20;11.77;;;;;;;;;;6246696;23;20087;-72
2023/01/12 07:15:46;;;;;;;21.87;9.60;;;;;;;;;;6220546;23;20015;-72
2023/01/12 07:18:13;;;;;;;20.90;9.37;;;;;;;;;;6246859;23;20004;-71
2023/01/12 07:20:39;;;;;;;14.20;6.73;;;;;;;;;;6245463;23;20007;-71
2023/01/12 07:23:05;;;;;;;11.87;5.90;;;;;;;;;;6245350;23;20000;-71
2023/01/12 07:25:31;;;;;;;19.77;5.93;;;;;;;;;;6247185;23;19996;-71
2023/01/12 07:27:58;;;;;;;18.13;6.93;;;;;;;;;;6245281;23;20022;-71
2023/01/12 07:30:25;;;;;;;17.60;7.33;;;;;;;;;;6247230;23;19996;-71
2023/01/12 07:32:51;;;;;;;12.67;6.90;;;;;;;;;;6246897;23;20055;-71
2023/01/12 07:38:33;;;;;;;10.03;5.80;;;;;;;;;;6093726;23;20413;-71
2023/01/12 07:44:42;;;;;;;15.80;7.30;;;;;;;;;;6036912;23;20035;-71
2023/01/12 07:47:08;;;;;;;13.77;7.43;;;;;;;;;;6020144;23;20019;-70
2023/01/12 07:55:49;;;;;;;18.07;7.77;;;;;;;;;;6091645;23;20013;-68
2023/01/12 07:58:15;;;;;;;14.27;7.67;;;;;;;;;;6181796;23;20051;-71
2023/01/12 08:03:33;;;;;;;19.90;8.67;;;;;;;;;;6171069;23;20013;-67
2023/01/12 08:06:00;;;;;;;21.87;8.93;;;;;;;;;;6186523;23;20027;-68
2023/01/12 08:08:26;;;;;;;22.90;9.47;;;;;;;;;;6211898;23;20016;-68
2023/01/12 08:10:52;;;;;;;18.07;9.87;;;;;;;;;;6212556;23;20059;-69
2023/01/12 08:13:21;;;;;;;25.40;9.07;;;;;;;;;;6215094;23;20024;-68
2023/01/12 08:15:49;;;;;;;26.03;9.40;;;;;;;;;;6213544;23;20372;-68
2023/01/12 08:18:15;;;;;;;21.03;9.03;;;;;;;;;;6214312;23;20011;-68
2023/01/12 08:20:41;;;;;;;16.10;8.90;;;;;;;;;;6214272;23;20063;-68
2023/01/12 08:23:16;;;;;;;16.47;8.87;;;;;;;;;;6213088;23;20340;-69
2023/01/12 08:25:43;;;;;;;20.97;9.17;;;;;;;;;;6215084;23;20301;-68
2023/01/12 08:28:12;;;;;;;19.97;9.50;;;;;;;;;;6214787;23;20016;-68
2023/01/12 08:30:38;;;;;;;22.30;9.67;;;;;;;;;;6214198;23;20259;-68
2023/01/12 08:33:04;;;;;;;14.37;8.70;;;;;;;;;;6213529;23;20004;-69
2023/01/12 08:35:32;;;;;;;17.17;7.67;;;;;;;;;;6213842;23;20498;-68
2023/01/12 08:37:59;;;;;;;13.20;6.63;;;;;;;;;;6215403;23;20004;-69
2023/01/12 08:41:31;;;;;;;10.20;6.07;;;;;;;;;;6215812;23;20007;-68
2023/01/12 08:43:11;;;;;;;11.67;5.33;;;;;;;;;;6215029;23;20016;-68
2023/01/12 08:45:37;;;;;;;11.63;6.03;;;;;;;;;;6214844;23;20383;-68
2023/01/12 08:48:03;;;;;;;8.47;5.23;;;;;;;;;;6215509;23;20020;-68
2023/01/12 08:50:29;;;;;;;8.67;5.13;;;;;;;;;;6188848;23;20000;-68
2023/01/12 08:52:56;;;;;;;10.43;5.20;;;;;;;;;;6214596;23;20440;-69
2023/01/12 08:55:22;;;;;;;13.90;5.53;;;;;;;;;;6215013;23;20144;-68
2023/01/12 08:57:48;;;;;;;12.73;5.27;;;;;;;;;;6215441;23;20000;-68
2023/01/12 09:00:14;;;;;;;11.77;5.63;;;;;;;;;;6188928;23;20087;-68
2023/01/12 09:02:41;;;;;;;10.63;5.07;;;;;;;;;;6215331;23;19997;-68
2023/01/12 09:05:07;;;;;;;10.70;5.13;;;;;;;;;;6214744;23;20011;-68
2023/01/12 09:07:33;;;;;;;8.53;5.10;;;;;;;;;;6215071;23;20037;-68
2023/01/12 09:09:59;;;;;;;8.80;4.77;;;;;;;;;;6215151;23;20093;-68
2023/01/12 09:12:27;;;;;;;9.60;4.50;;;;;;;;;;6215705;23;20004;-68
2023/01/12 09:14:53;;;;;;;6.77;4.20;;;;;;;;;;6215989;23;20083;-68
2023/01/12 09:17:21;;;;;;;7.93;4.00;;;;;;;;;;6216185;23;20055;-67
2023/01/12 09:19:49;;;;;;;10.53;4.60;;;;;;;;;;6216400;23;20314;-67
2023/01/12 09:22:31;;;;;;;;;;;;;;;;;;;;;
2023/01/12 09:25:35;;;;;;;7.10;3.70;;;;;;;;;;6215768;23;20072;-67
2023/01/12 09:41:04;;;;;;;6.90;3.50;;;;;;;;;;5980456;23;20103;-68
2023/01/12 09:49:28;;;;;;;7.85;4.00;;;;;;;;;;6212651;23;20410;-68
2023/01/12 09:52:00;;;;;;;9.40;3.87;;;;;;;;;;6215107;23;20340;-67
2023/01/12 09:54:26;;;;;;;12.25;3.50;;;;;;;;;;6215159;23;20039;-70
2023/01/12 09:57:10;;;;;;;6.13;3.40;;;;;;;;;;6212597;23;20384;-70
2023/01/12 09:59:45;;;;;;;7.97;4.10;;;;;;;;;;6215197;23;20032;-70
2023/01/12 10:02:12;;;;;;;9.10;3.60;;;;;;;;;;6215233;23;20331;-70
2023/01/12 10:04:39;;;;;;;7.57;3.40;;;;;;;;;;6214666;23;20335;-70
2023/01/12 10:07:05;;;;;;;10.07;3.70;;;;;;;;;;6215048;23;19997;-70
2023/01/12 10:09:33;;;;;;;8.40;3.70;;;;;;;;;;6215338;23;20012;-70
2023/01/12 10:12:11;;;;;;;7.47;3.93;;;;;;;;;;6215321;23;20001;-70
2023/01/12 10:14:37;;;;;;;8.33;3.63;;;;;;;;;;6215330;23;20015;-71
2023/01/12 10:17:09;;;;;;;8.73;3.50;;;;;;;;;;6216087;23;20005;-70
2023/01/12 10:19:54;;;;;;;7.20;3.50;;;;;;;;;;6212751;23;20439;-70
2023/01/12 10:22:35;;;;;;;8.40;4.00;;;;;;;;;;6215356;23;20435;-70
2023/01/12 10:25:17;;;;;;;12.07;5.60;;;;;;;;;;6215187;23;20000;-69
2023/01/12 10:27:44;;;;;;;17.43;6.20;;;;;;;;;;6215116;23;20332;-70
2023/01/12 10:30:15;;;;;;;13.53;5.70;;;;;;;;;;6214821;23;20423;-70
2023/01/12 10:32:41;;;;;;;18.07;5.40;;;;;;;;;;6215203;23;20486;-69
2023/01/12 10:35:13;;;;;;;11.47;6.27;;;;;;;;;;6213378;23;20420;-71
2023/01/12 10:37:46;;;;;;;20.30;6.57;;;;;;;;;;6188135;23;20020;-71
2023/01/12 10:40:22;;;;;;;14.70;6.80;;;;;;;;;;6214989;23;20000;-71
2023/01/12 10:45:37;;;;;;;14.53;5.97;;;;;;;;;;6214890;23;20012;-69
2023/01/12 10:48:15;;;;;;;16.37;5.70;;;;;;;;;;6205874;23;20103;-69
2023/01/12 10:50:41;;;;;;;10.07;6.07;;;;;;;;;;6246047;23;20350;-69
2023/01/12 10:53:19;;;;;;;11.90;6.00;;;;;;;;;;6245299;23;20012;-70
2023/01/12 10:55:46;;;;;;;13.43;6.90;;;;;;;;;;6245297;23;20000;-69
2023/01/12 10:58:21;;;;;;;14.80;6.50;;;;;;;;;;6246096;23;20362;-68
2023/01/12 11:00:48;;;;;;;15.37;7.00;;;;;;;;;;6246211;23;20004;-68
2023/01/12 11:03:36;;;;;;;17.77;7.63;;;;;;;;;;6246329;23;20000;-68
2023/01/12 11:06:25;;;;;;;16.53;6.70;;;;;;;;;;6246250;23;20087;-68
2023/01/12 11:09:15;;;;;;;13.17;4.67;;;;;;;;;;6234592;23;20012;-68
2023/01/12 11:39:31;;;;;;;9.25;4.53;;;;;;;;;;6094336;23;20017;-69
2023/01/12 11:44:46;;;;;;;8.50;4.40;;;;;;;;;;6153227;23;20018;-68
2023/01/12 11:47:13;;;;;;;10.77;4.67;;;;;;;;;;6246658;23;20316;-68
2023/01/12 11:49:55;;;;;;;7.97;5.00;;;;;;;;;;6246523;23;20072;-68
2023/01/12 11:52:21;;;;;;;10.40;4.72;;;;;;;;;;6246712;23;20363;-68
2023/01/12 11:54:47;;;;;;;11.02;4.30;;;;;;;;;;6246834;23;20027;-69
2023/01/12 11:57:32;;;;;;;8.48;4.03;;;;;;;;;;6246733;23;20007;-69
2023/01/12 12:00:22;;;;;;;6.85;3.85;;;;;;;;;;6246425;23;20079;-68
2023/01/12 12:02:58;;;;;;;7.43;3.80;;;;;;;;;;6244789;23;20091;-68
2023/01/12 12:05:24;;;;;;;5.90;3.60;;;;;;;;;;6246615;23;20485;-68
2023/01/12 12:07:56;;;;;;;12.32;3.53;;;;;;;;;;6246153;23;20012;-68
2023/01/12 12:10:34;;;;;;;8.43;3.78;;;;;;;;;;6245347;23;20004;-68
2023/01/12 12:13:18;;;;;;;6.53;3.65;;;;;;;;;;6246486;23;20427;-69
2023/01/12 12:15:59;;;;;;;7.50;3.65;;;;;;;;;;6245980;23;20046;-68
2023/01/12 12:18:36;;;;;;;7.07;3.53;;;;;;;;;;6246319;23;20323;-68
2023/01/12 12:21:22;;;;;;;6.03;3.20;;;;;;;;;;6245958;23;20001;-69
2023/01/12 12:23:51;;;;;;;10.80;3.30;;;;;;;;;;6230418;23;20083;-69
2023/01/12 12:26:23;;;;;;;9.07;3.97;;;;;;;;;;6246419;23;20076;-68
2023/01/12 12:28:49;;;;;;;13.43;3.70;;;;;;;;;;6246128;23;20422;-68
2023/01/12 12:31:19;;;;;;;8.10;3.92;;;;;;;;;;6246317;23;20000;-68
2023/01/12 12:33:45;;;;;;;9.23;4.57;;;;;;;;;;6246048;23;20471;-68
2023/01/12 12:36:18;;;;;;;8.27;3.50;;;;;;;;;;6245424;23;20007;-68
2023/01/12 12:39:03;;;;;;;6.88;3.25;;;;;;;;;;6245986;23;20034;-68
2023/01/12 12:47:23;;;;;;;5.35;3.17;;;;;;;;;;6246233;22;20036;-69
2023/01/12 12:49:50;;;;;;;4.20;2.65;;;;;;;;;;6246537;23;20008;-68
2023/01/12 12:52:16;;;;;;;9.80;2.30;;;;;;;;;;6246349;23;19996;-68
2023/01/12 12:54:43;;;;;;;5.63;3.30;;;;;;;;;;6246548;23;20334;-68
2023/01/12 12:57:15;;;;;;;8.77;2.80;;;;;;;;;;6246557;23;20000;-68
2023/01/12 13:09:16;;;;;;;9.02;2.05;;;;;;;;;;6036008;23;20019;-68
2023/01/12 13:18:05;;;;;;;3.75;1.55;;;;;;;;;;5925134;24;20033;-68
2023/01/12 13:20:59;;;;;;;4.00;2.20;;;;;;;;;;5993447;23;20034;-68
2023/01/12 13:23:55;;;;;;;2.85;1.70;;;;;;;;;;6106505;23;20060;-68
2023/01/12 13:26:37;;;;;;;6.43;1.90;;;;;;;;;;6170934;23;20024;-68
2023/01/12 13:29:22;;;;;;;5.10;1.98;;;;;;;;;;6245601;23;20087;-68
2023/01/12 13:31:48;;;;;;;2.90;1.80;;;;;;;;;;6243830;23;20004;-68
2023/01/12 13:34:33;;;;;;;97.68;5.82;;;;;;;;;;6245165;23;20095;-68
2023/01/12 13:37:17;;;;;;;6.45;2.05;;;;;;;;;;6245292;23;20019;-68
2023/01/12 13:39:50;;;;;;;5.50;2.90;;;;;;;;;;6245610;23;20362;-68
2023/01/12 13:45:08;;;;;;;8.93;3.55;;;;;;;;;;6241903;23;20027;-69
2023/01/12 13:47:36;;;;;;;10.95;5.78;;;;;;;;;;6230085;22;20031;-68
2023/01/12 13:50:02;;;;;;;3.50;2.22;;;;;;;;;;6214018;23;20020;-68
2023/01/12 13:52:34;;;;;;;7.13;3.08;;;;;;;;;;6214809;23;20428;-68
2023/01/12 13:55:00;;;;;;;21.88;10.00;;;;;;;;;;6214674;23;20062;-68
2023/01/12 13:57:28;;;;;;;5.70;2.30;;;;;;;;;;6214311;23;20547;-68
2023/01/12 13:59:57;;;;;;;3.35;2.10;;;;;;;;;;6214774;23;20419;-68
2023/01/12 14:02:23;;;;;;;3.90;2.58;;;;;;;;;;6214850;23;20431;-68
2023/01/12 14:04:53;;;;;;;4.32;2.72;;;;;;;;;;6214155;23;20466;-68
2023/01/12 14:07:25;;;;;;;5.07;2.78;;;;;;;;;;6214580;23;20004;-68
2023/01/12 14:10:00;;;;;;;5.35;2.47;;;;;;;;;;6214896;23;20062;-68
2023/01/12 14:12:35;;;;;;;8.10;3.60;;;;;;;;;;6214463;23;19996;-68
2023/01/12 14:18:06;;;;;;;33.30;16.60;;;;;;;;;;6211030;23;20012;-68
2023/01/12 14:20:40;;;;;;;106.45;49.22;;;;;;;;;;6212093;23;20084;-68
2023/01/12 14:23:18;;;;;;;87.82;51.83;;;;;;;;;;6214841;23;20051;-69
2023/01/12 14:25:45;;;;;;;225.98;144.20;;;;;;;;;;6214746;23;20005;-70
2023/01/12 14:28:15;;;;;;;117.97;82.65;;;;;;;;;;6214886;23;20024;-68
2023/01/12 14:30:45;;;;;;;90.68;70.63;;;;;;;;;;6215438;23;20336;-68
2023/01/12 14:33:16;;;;;;;43.45;36.40;;;;;;;;;;6215333;23;20340;-68
2023/01/12 14:35:46;;;;;;;29.75;26.38;;;;;;;;;;6215436;23;19996;-68
2023/01/12 14:38:14;;;;;;;29.02;18.02;;;;;;;;;;6215289;23;20009;-67
2023/01/12 14:40:47;;;;;;;16.00;10.40;;;;;;;;;;6215003;23;20351;-68
2023/01/12 14:55:40;;;;;;;11.45;5.53;;;;;;;;;;6094685;23;20489;-68
2023/01/12 15:01:06;;;;;;;71.78;43.17;;;;;;;;;;6095408;23;20033;-68
2023/01/12 15:03:33;;;;;;;19.02;12.27;;;;;;;;;;6156542;23;20027;-68
2023/01/12 15:06:20;;;;;;;43.13;12.23;;;;;;;;;;6216048;23;20004;-68
2023/01/12 15:08:59;;;;;;;6.68;4.40;;;;;;;;;;6216270;23;20378;-68
2023/01/12 15:11:29;;;;;;;5.80;3.90;;;;;;;;;;6215706;23;20011;-68
2023/01/12 15:13:57;;;;;;;5.70;3.97;;;;;;;;;;6216620;23;20001;-68
2023/01/12 15:27:26;;;;;;;11.25;4.68;;;;;;;;;;6216564;23;20462;-68
2023/01/12 15:29:54;;;;;;;8.48;6.03;;;;;;;;;;6189903;23;20373;-68
2023/01/12 15:32:22;;;;;;;7.32;4.55;;;;;;;;;;6216535;23;20055;-68
2023/01/12 15:34:48;;;;;;;9.57;5.28;;;;;;;;;;6216546;23;20420;-68
2023/01/12 15:37:15;;;;;;;8.00;4.90;;;;;;;;;;6216613;23;20050;-68
2023/01/12 15:39:41;;;;;;;12.75;6.22;;;;;;;;;;6189745;23;20000;-68
2023/01/12 15:42:15;;;;;;;11.05;4.70;;;;;;;;;;6216298;23;20008;-69
2023/01/12 15:44:41;;;;;;;11.20;5.28;;;;;;;;;;6216363;23;20473;-68
2023/01/12 15:47:10;;;;;;;15.73;7.65;;;;;;;;;;6219688;23;20054;-68
2023/01/12 15:49:36;;;;;;;11.40;7.68;;;;;;;;;;6246598;23;20431;-69
2023/01/12 15:52:02;;;;;;;13.65;8.82;;;;;;;;;;6246631;23;19996;-69
2023/01/12 15:54:28;;;;;;;11.68;8.35;;;;;;;;;;6246258;23;20004;-69
2023/01/12 15:56:56;;;;;;;9.02;6.78;;;;;;;;;;6246516;23;20473;-69
2023/01/12 15:59:22;;;;;;;9.50;4.93;;;;;;;;;;6246538;23;20011;-69
2023/01/12 16:01:48;;;;;;;12.10;5.72;;;;;;;;;;6219717;23;19996;-69
2023/01/12 16:04:21;;;;;;;6.78;4.90;;;;;;;;;;6247100;23;20079;-69
2023/01/12 16:06:48;;;;;;;8.82;5.32;;;;;;;;;;6246614;23;20450;-68
2023/01/12 16:09:14;;;;;;;8.63;5.18;;;;;;;;;;6246110;23;20015;-69
2023/01/12 16:11:41;;;;;;;9.98;5.32;;;;;;;;;;6245782;23;20363;-69
2023/01/12 16:14:07;;;;;;;10.63;5.78;;;;;;;;;;6245761;23;20453;-69
2023/01/12 16:16:34;;;;;;;12.48;5.80;;;;;;;;;;6246065;23;20150;-69
2023/01/12 16:19:05;;;;;;;11.13;5.45;;;;;;;;;;6246577;23;20054;-68
2023/01/12 16:21:32;;;;;;;11.20;6.63;;;;;;;;;;6247082;23;20011;-69
2023/01/12 16:23:59;;;;;;;13.10;7.88;;;;;;;;;;6247227;23;20069;-69
2023/01/12 16:26:25;;;;;;;20.67;8.98;;;;;;;;;;6246880;23;20023;-69
2023/01/12 16:38:53;;;;;;;16.07;8.70;;;;;;;;;;5980825;24;20091;-70
2023/01/12 16:47:32;;;;;;;16.87;8.67;;;;;;;;;;5925196;24;20036;-70
2023/01/12 16:50:20;;;;;;;21.23;9.30;;;;;;;;;;5925675;24;20036;-70
2023/01/12 16:52:46;;;;;;;19.47;11.43;;;;;;;;;;5925094;24;20212;-69
2023/01/12 16:55:13;;;;;;;21.80;10.25;;;;;;;;;;5942180;23;20383;-71
2023/01/12 16:57:40;;;;;;;15.47;10.00;;;;;;;;;;6153025;23;20379;-71
2023/01/12 17:00:07;;;;;;;19.40;8.35;;;;;;;;;;6245841;23;20090;-69
2023/01/12 17:02:33;;;;;;;16.47;9.13;;;;;;;;;;6245739;23;20424;-69
2023/01/12 17:05:00;;;;;;;19.40;9.87;;;;;;;;;;6246249;23;20350;-70
2023/01/12 17:07:26;;;;;;;20.93;11.03;;;;;;;;;;6245399;23;20011;-72
2023/01/12 17:09:53;;;;;;;20.85;12.00;;;;;;;;;;6245922;23;20323;-70
2023/01/12 17:12:19;;;;;;;19.03;11.53;;;;;;;;;;6245988;23;20331;-71
2023/01/12 17:14:45;;;;;;;21.33;11.10;;;;;;;;;;6245666;23;20000;-70
2023/01/12 17:17:11;;;;;;;23.93;12.50;;;;;;;;;;6245780;23;20000;-70
2023/01/12 17:19:38;;;;;;;23.80;13.17;;;;;;;;;;6218469;23;20012;-72
2023/01/12 17:22:05;;;;;;;25.13;15.87;;;;;;;;;;6245232;23;20000;-70
2023/01/12 17:24:32;;;;;;;26.93;16.03;;;;;;;;;;6218721;23;20004;-70
2023/01/12 17:26:58;;;;;;;25.27;15.23;;;;;;;;;;6245772;23;20004;-69
2023/01/12 17:29:25;;;;;;;27.00;15.13;;;;;;;;;;6245478;23;20469;-70
2023/01/12 17:31:52;;;;;;;25.87;15.40;;;;;;;;;;6218329;23;20004;-71
2023/01/12 17:34:18;;;;;;;22.67;14.20;;;;;;;;;;6245395;23;20008;-72
2023/01/12 17:36:45;;;;;;;25.03;14.10;;;;;;;;;;6245706;23;20004;-71
2023/01/12 17:39:13;;;;;;;22.97;14.93;;;;;;;;;;6245428;23;20004;-73
2023/01/12 17:44:24;;;;;;;23.83;14.63;;;;;;;;;;6245287;23;20019;-71
2023/01/12 17:46:51;;;;;;;25.83;16.57;;;;;;;;;;6245165;23;20046;-71
2023/01/12 17:49:18;;;;;;;27.50;15.37;;;;;;;;;;6245161;23;20008;-71
2023/01/12 17:51:44;;;;;;;23.80;16.13;;;;;;;;;;6245899;23;20008;-71
2023/01/12 17:54:11;;;;;;;28.10;17.30;;;;;;;;;;6245515;23;20469;-71
2023/01/12 17:56:37;;;;;;;28.07;17.33;;;;;;;;;;6245449;23;20001;-70
2023/01/12 17:59:04;;;;;;;29.57;18.37;;;;;;;;;;6245230;23;20119;-70
2023/01/12 18:01:31;;;;;;;29.40;18.33;;;;;;;;;;6246313;23;20003;-72
2023/01/12 18:03:58;;;;;;;25.40;17.93;;;;;;;;;;6246136;23;20004;-72
2023/01/12 18:06:24;;;;;;;32.27;18.57;;;;;;;;;;6246182;23;20075;-71
2023/01/12 18:08:51;;;;;;;28.73;18.60;;;;;;;;;;6218859;23;20019;-71
2023/01/12 18:11:18;;;;;;;33.47;18.83;;;;;;;;;;6245726;23;20079;-71
2023/01/12 18:17:13;;;;;;;30.40;19.60;;;;;;;;;;6094215;23;20022;-72
2023/01/12 18:22:44;;;;;;;39.43;23.60;;;;;;;;;;6152725;23;20048;-71
2023/01/12 18:25:34;;;;;;;37.97;22.63;;;;;;;;;;6152916;23;20012;-72
2023/01/12 18:34:40;;;;;;;30.97;19.47;;;;;;;;;;6004855;23;20019;-71